Ana Sayfa
METAR-TAF:

METAR-TAF

Havaalanları :

Reading Regional Airport (Carl A. Spaatz Field)

Reading, Pensilvanya, Amerika Birleşik Devletleri

Enlem: 40-22-24N, Boylam: 075-57-34W, yükseklik: 105 m

Güncel hava durumu gözlemi

Rapor saat 04:54 UTC de 16 dakika önce yapıldı.
Rüzgar kuzeydoğudan 6 kt
Sıcaklık -9°C
Nem 57%
Basınç 1033 hPa
Görüş mesafesi: 16.1 km
Açık gökyüzü

METAR: KRDG 220454Z AUTO 05006KT 10SM CLR M09/M16 A3050 RMK AO2 SLP339 T10891161 410391111

Saat: 00:10 (05:10 UTC)

Tahmin

Rapor saat 23:20 UTC de 5 saat ve 50 dakika önce yapıldı.
Ayın 22'si saat 00 UTC'den ayın 22'si saat 24 UTC'ye kadar geçerli Tahmin
Rüzgar kuzey/kuzeydoğudan 6 kt
Görüş mesafesi: 10 km
20000 ft yükseklikte parçalı bulutlu
Ayın 22'si saat 1700 UTC'den
Rüzgar değişken yönden 4 kt
Görüş mesafesi: 10 km
15000 ft yükseklikte parçalı bulutlu

TAF: KRDG 212320Z 2200/2224 02006KT P6SM SCT200 FM221700 VRB04KT P6SM SCT150

4.000'den fazla havaalanı için hava durumu gözlemleri ve tahminleri (METAR ve TAF raporları).

Kullanılabilir istasyonlar harita üzerinde sarı ve kırmızı noktalarla gösterilir.

İstasyonun adını görmek için fareyi noktanın üzerinde gezdirin.

Sonrasında hava gözlem ve tahminlerini görmek için tıklayın.

Haritayı değiştirmek için: yaklaştırmak için siyah artı işaretli yeşil düğmeye ve uzaklaştırmak için de eksi işaretli düğmeye hızla tıklayın; bitişik haritalar için yeşil okları kullanın.


METAR-TAF: